»·PEaware :: N250EF KLAX-KPSP

N250EF :: KLAX-KPSP

FLIGHT INFORMATION

Flight Status: Arrived
Operator: Privately registered:
United States
More flights under this callsign
Pilot: Max H. (24278)
Aircraft: BEECH AIRCRAFT PREMIER
(PRM1)
More flights by this aircraft type
Origin: KLAX Los Angeles Intl
United States
Destination: KPSP Palm Springs Intl
United States
More flights between these airports :: More routes between these airports
Route: DOTSS2 CLEEE
File this flight plan on PilotEdge
Remarks:
Altitude:
(Current/Filed)
29,000ft
Speed:
(Current/Filed)
300kts
Departed: 17-Apr-19 08:08 PM
Arrived: 17-Apr-19 08:36 PM
Distance/Time
Traveled:
95nm/0:28
Distance/Time
To Go:
Arrived

Flight Plot

Page will automatically refresh every two minutes.


Map Options




Map Legend


Flown Route
Filed Route
Departure Airport
Arrival Airport
Navaid (VOR, NDB)
Fix

Horizontal Profiles

Position Reports

Time Latitude Longitude Heading Altitude Ground
Speed
17-Apr-19 19:45 33.933152 -118.402071 170 131ft 0kts
17-Apr-19 19:46 33.933152 -118.402071 170 131ft 0kts
17-Apr-19 19:47 33.933152 -118.402071 170 131ft 0kts
17-Apr-19 19:48 33.933152 -118.402071 170 131ft 0kts
17-Apr-19 19:49 33.933152 -118.402071 170 131ft 0kts
17-Apr-19 19:50 33.933152 -118.402071 170 131ft 0kts
17-Apr-19 19:51 33.933152 -118.402071 170 131ft 0kts
17-Apr-19 19:52 33.933152 -118.402071 170 131ft 0kts
17-Apr-19 19:53 33.933152 -118.402071 170 131ft 0kts
17-Apr-19 19:54 33.933152 -118.402071 170 131ft 0kts
17-Apr-19 19:55 33.933152 -118.402071 170 131ft 0kts
17-Apr-19 19:56 33.933152 -118.402071 170 131ft 0kts
17-Apr-19 19:57 33.933152 -118.402071 170 131ft 0kts
17-Apr-19 19:58 33.933152 -118.402071 170 131ft 0kts
17-Apr-19 19:59 33.933152 -118.402071 170 131ft 0kts
17-Apr-19 20:00 33.933152 -118.402071 170 131ft 0kts
17-Apr-19 20:01 33.933152 -118.402071 170 131ft 0kts
17-Apr-19 20:02 33.933056 -118.401910 77 131ft 6kts
17-Apr-19 20:03 33.934564 -118.398170 83 131ft 22kts
17-Apr-19 20:04 33.935341 -118.391702 79 131ft 23kts
17-Apr-19 20:05 33.936177 -118.382987 59 131ft 11kts
17-Apr-19 20:06 33.936720 -118.382924 350 131ft 0kts
17-Apr-19 20:07 33.936731 -118.391342 262 131ft 117kts
17-Apr-19 20:08 33.929126 -118.452428 249 1039ft 226kts
17-Apr-19 20:09 33.892779 -118.514674 230 2577ft 236kts
17-Apr-19 20:10 33.838949 -118.555443 177 4804ft 243kts
17-Apr-19 20:11 33.772938 -118.541500 167 6999ft 238kts
17-Apr-19 20:12 33.710220 -118.522348 146 9174ft 228kts
17-Apr-19 20:13 33.678932 -118.458379 110 11387ft 232kts
17-Apr-19 20:14 33.654848 -118.376993 105 13648ft 290kts
17-Apr-19 20:15 33.645285 -118.265571 91 15914ft 369kts
17-Apr-19 20:16 33.644499 -118.142555 89 18110ft 372kts
17-Apr-19 20:17 33.644542 -118.016591 90 20315ft 389kts
17-Apr-19 20:18 33.644378 -117.883633 89 20812ft 407kts
17-Apr-19 20:19 33.661178 -117.741820 77 21009ft 459kts
17-Apr-19 20:20 33.684162 -117.595153 74 20997ft 420kts
17-Apr-19 20:21 33.707908 -117.463851 73 19088ft 384kts
17-Apr-19 20:22 33.731309 -117.340221 73 16592ft 377kts
17-Apr-19 20:23 33.748609 -117.218437 84 14393ft 343kts
17-Apr-19 20:24 33.749019 -117.107135 88 14119ft 331kts
17-Apr-19 20:25 33.746590 -116.998186 88 14087ft 316kts
17-Apr-19 20:26 33.744279 -116.893744 88 14061ft 311kts
17-Apr-19 20:27 33.729326 -116.788649 100 13139ft 341kts
17-Apr-19 20:28 33.699752 -116.682286 110 11167ft 300kts
17-Apr-19 20:29 33.672482 -116.588807 94 9259ft 291kts
17-Apr-19 20:30 33.664602 -116.493008 91 8539ft 287kts
17-Apr-19 20:31 33.672747 -116.406421 23 6585ft 239kts
17-Apr-19 20:32 33.735420 -116.421691 321 3949ft 208kts
17-Apr-19 20:33 33.773830 -116.458109 325 1693ft 179kts
17-Apr-19 20:34 33.810764 -116.490850 322 688ft 152kts
17-Apr-19 20:35 33.829520 -116.508360 255 482ft 11kts
17-Apr-19 20:36 33.829358 -116.510544 271 482ft 11kts
17-Apr-19 20:37 33.828805 -116.512413 184 482ft 0kts
17-Apr-19 20:38 33.828805 -116.512413 184 482ft 0kts

Navigation Log

Ident Type
Flight plan parsing failed, navigation log unavailable